Data for 08/21/2016

Time Sea-Level Adjusted Pressure Absolute Pressure Temperature Relative Humidity Dew Point   
(mb) (inHg) (mb) (inHg) (C) (F) (%) (C) (F)
00:05 1018 30.06 847 25.01 15.4 59.8 32 -1.2 29.8
00:10 1018 30.06 847 25.01 14.8 58.7 33 -1.3 29.6
00:15 1018 30.06 847 25.01 14.6 58.2 33 -1.4 29.4
00:20 1018 30.06 847 25.01 14 57.3 37 -0.3 31.4
00:25 1018 30.06 847 25.01 13.8 56.8 35 -1.4 29.6
00:30 1018 30.06 847 25.01 14 57.2 36 -0.6 30.9
00:35 1018 30.06 847 25.01 14.2 57.6 33 -1.7 29
00:40 1018 30.06 847 25.01 14.4 57.9 33 -1.6 29.1
00:45 1018 30.06 847 25.01 14.3 57.7 33 -1.5 29.3
00:50 1017 30.03 847 25.01 14.2 57.5 34 -1.6 29.2
00:55 1017 30.03 847 25.01 14 57.1 35 -1.2 29.8
01:00 1017 30.03 847 25.01 13.7 56.7 36 -0.9 30.5
01:05 1017 30.03 847 25.01 13.4 56.2 37 -1 30.3
01:10 1017 30.03 847 25.01 13.8 56.8 33 -2 28.4
01:15 1017 30.03 847 25.01 14.3 57.7 33 -1.8 28.8
01:20 1017 30.03 847 25.01 14.2 57.6 34 -1.5 29.3
01:25 1017 30.03 847 25.01 14 57.2 34 -1.6 29.1
01:30 1017 30.03 847 25.01 13.6 56.6 37 -0.7 30.8
01:35 1017 30.03 847 25.01 13.5 56.2 35 -1.7 29
01:40 1017 30.03 847 25.01 13.8 56.8 35 -1.4 29.5
01:45 1017 30.03 847 25.01 13.9 57 35 -1.3 29.7
01:50 1017 30.03 847 25.01 13.6 56.5 37 -0.7 30.8
01:55 1017 30.03 847 25.01 13 55.4 41 0.2 32.3
02:00 1017 30.03 847 25.01 12.2 54 44 0.2 32.4
02:05 1017 30.03 847 25.01 11.9 53.3 43 -0.3 31.4
02:10 1017 30.03 847 25.01 12.2 54 42 -0.4 31.3
02:15 1017 30.03 847 25.01 12.5 54.6 37 -1.6 29.2
02:20 1017 30.03 847 25.01 13.1 55.5 37 -1.3 29.6
02:25 1017 30.03 847 25.01 13.1 55.7 38 -1 30.3
02:30 1017 30.03 847 25.01 13 55.3 38 -0.9 30.3
02:35 1017 30.03 847 25.01 12.7 54.9 38 -1.1 30.1
02:40 1017 30.03 847 25.01 12.7 54.8 39 -0.9 30.4
02:45 1017 30.03 847 25.01 12.6 54.8 38 -1.1 30
02:50 1017 30.03 847 25.01 12.6 54.7 38 -1.1 30
02:55 1017 30.03 847 25.01 12.3 54.2 41 -0.4 31.3
03:00 1017 30.03 846 24.98 12 53.6 42 -0.6 31
03:05 1017 30.03 846 24.98 12 53.6 41 -0.8 30.6
03:10 1017 30.03 846 24.98 12 53.6 42 -0.5 31.2
03:15 1017 30.03 846 24.98 11.8 53.2 43 -0.5 31.1
03:20 1017 30.03 846 24.98 11.8 53.2 41 -1 30.3
03:25 1017 30.03 846 24.98 12.1 53.7 40 -1 30.3
03:30 1017 30.03 846 24.98 12.1 53.8 41 -0.8 30.5
03:35 1017 30.03 846 24.98 12.1 53.7 41 -0.7 30.8
03:40 1017 30.03 846 24.98 12 53.7 41 -0.7 30.7
03:45 1017 30.03 846 24.98 12 53.6 42 -0.5 31.1
03:50 1017 30.03 846 24.98 12 53.7 40 -1.2 29.9
03:55 1017 30.03 846 24.98 12.5 54.4 38 -1.4 29.5
04:00 1017 30.03 846 24.98 12.7 54.9 38 -1.3 29.7
04:05 1017 30.03 846 24.98 12.9 55.2 39 -0.6 31
04:10 1017 30.03 846 24.98 13 55.3 37 -1.4 29.5
04:15 1017 30.03 846 24.98 13 55.3 39 -0.6 31
04:20 1017 30.03 846 24.98 12.8 55 38 -1.1 30.1
04:25 1017 30.03 846 24.98 12.6 54.6 38 -1.2 29.9
04:30 1017 30.03 846 24.98 12.8 55 37 -1.6 29.2
04:35 1017 30.03 846 24.98 12.9 55.3 38 -1.2 29.9
04:40 1017 30.03 846 24.98 12.9 55.2 38 -1 30.2
04:45 1017 30.03 846 24.98 12.7 54.8 38 -1.1 30.1
04:50 1017 30.03 846 24.98 12.5 54.6 39 -1 30.2
04:55 1017 30.03 846 24.98 12.6 54.6 39 -1 30.3
05:00 1017 30.03 846 24.98 12.5 54.5 39 -0.9 30.4
05:05 1017 30.03 846 24.98 12.2 53.9 41 -0.6 31
05:10 1017 30.03 846 24.98 11.8 53.2 41 -0.9 30.5
05:15 1017 30.03 846 24.98 11.8 53.3 41 -1 30.2
05:20 1017 30.03 846 24.98 12 53.6 40 -1 30.2
05:25 1017 30.03 846 24.98 11.9 53.3 42 -0.6 30.8
05:30 1017 30.03 846 24.98 11.4 52.5 44 -0.4 31.3
05:35 1017 30.03 846 24.98 11.4 52.5 42 -1.1 30
05:40 1017 30.03 846 24.98 12 53.6 40 -1 30.1
05:45 1017 30.03 846 24.98 12.2 53.9 39 -1.1 30
05:50 1017 30.03 846 24.98 12.3 54.2 39 -1.1 30
05:55 1017 30.03 846 24.98 12.4 54.3 40 -0.8 30.5
06:00 1017 30.03 846 24.98 12.4 54.4 39 -1.1 30.1
06:05 1017 30.03 846 24.98 12.8 55 37 -1.5 29.3
06:10 1017 30.03 846 24.98 13.1 55.6 37 -1.1 30
06:15 1017 30.03 846 24.98 13.1 55.6 38 -0.7 30.7
06:20 1017 30.03 846 24.98 12.9 55.2 40 -0.3 31.4
06:25 1017 30.03 846 24.98 12.8 55.1 38 -1.2 29.9
06:30 1017 30.03 846 24.98 13.2 55.7 36 -1.6 29.1
06:35 1017 30.03 846 24.98 13.6 56.5 35 -1.5 29.2
06:40 1017 30.03 846 24.98 13.9 57.1 35 -1.2 29.8
06:45 1017 30.03 846 24.98 14.3 57.7 35 -1 30.2
06:50 1017 30.03 846 24.98 14.4 58 33 -1.4 29.4
06:55 1017 30.03 846 24.98 14.7 58.4 35 -0.5 31.1
07:00 1017 30.03 846 24.98 14.9 58.9 33 -1.1 30.1
07:05 1017 30.03 846 24.98 15.1 59.3 34 -0.6 30.9
07:10 1017 30.03 846 24.98 15 59.1 36 0.2 32.3
07:15 1017 30.03 846 24.98 15.1 59.2 37 0.7 33.2
07:20 1017 30.03 846 24.98 15.3 59.6 38 1.2 34.1
07:25 1017 30.03 846 24.98 16.1 60.9 33 0.1 32.2
07:30 1017 30.03 846 24.98 17.1 62.8 32 0.3 32.6
07:35 1017 30.03 846 24.98 17.6 63.6 32 0.7 33.3
07:40 1017 30.03 846 24.98 18 64.3 30 0.4 32.7
07:45 1017 30.03 846 24.98 17.8 64 31 0.6 33.2
07:50 1017 30.03 846 24.98 17.5 63.5 32 0.9 33.7
07:55 1017 30.03 846 24.98 16.9 62.4 32 0.1 32.1
08:00 1017 30.03 846 24.98 16.8 62.3 31 -0.2 31.6
08:05 1017 30.03 846 24.98 17 62.6 31 -0 31.9
08:10 1017 30.03 846 24.98 17.4 63.4 29 -0.7 30.7
08:15 1017 30.03 846 24.98 17.5 63.4 30 -0.3 31.5
08:20 1017 30.03 846 24.98 17.3 63.2 30 -0.2 31.6
08:25 1017 30.03 846 24.98 18 64.5 29 -0.1 31.9
08:30 1017 30.03 846 24.98 18.8 65.9 28 0 32
08:35 1017 30.03 846 24.98 19.4 66.8 27 -0 31.9
08:40 1017 30.03 846 24.98 19.6 67.2 27 0.1 32.2
08:45 1017 30.03 846 24.98 19.6 67.2 27 0.1 32.2
08:50 1017 30.03 846 24.98 19.9 67.7 27 0.4 32.7
08:55 1017 30.03 846 24.98 19.3 66.7 28 0.4 32.7
09:00 1017 30.03 846 24.98 19.8 67.7 28 0.8 33.4
09:05 1017 30.03 846 24.98 19.6 67.3 27 0.1 32.1
09:10 1017 30.03 846 24.98 19.9 67.9 25 -0.3 31.5
09:15 1017 30.03 846 24.98 20.5 68.9 26 0.4 32.8
09:20 1017 30.03 846 24.98 20.3 68.5 25 -0.3 31.5
09:25 1017 30.03 846 24.98 21.4 70.4 24 0.1 32.2
09:30 1017 30.03 846 24.98 21.4 70.5 25 0.6 33.1
09:35 1017 30.03 846 24.98 21.4 70.5 23 -0.4 31.3
09:40 1017 30.03 846 24.98 21.8 71.2 22 -0.5 31
09:45 1017 30.03 846 24.98 21.8 71.2 22 -0.4 31.2
09:50 1017 30.03 846 24.98 21.7 71.1 21 -1.5 29.2
09:55 1017 30.03 846 24.98 22.7 72.8 20 -1.4 29.5
10:00 1017 30.03 846 24.98 22.9 73.2 21 -0.6 31
10:05 1017 30.03 846 24.98 22.6 72.7 21 -0.5 31.1
10:10 1017 30.03 846 24.98 22.9 73.3 20 -0.8 30.6
10:15 1017 30.03 846 24.98 23.6 74.4 21 -0.1 31.9
10:20 1017 30.03 846 24.98 24 75.1 20 0.2 32.3
10:25 1017 30.03 846 24.98 24 75.2 20 -0.1 31.9
10:30 1017 30.03 846 24.98 24.1 75.3 20 0.2 32.3
10:35 1017 30.03 846 24.98 24 75.2 19 -0.7 30.8
10:40 1016 30 846 24.98 23.9 75.1 20 -0.1 31.8
10:45 1016 30 846 24.98 23.9 75 19 -0.7 30.8
10:50 1016 30 846 24.98 24.2 75.6 19 -0.3 31.4
10:55 1016 30 846 24.98 23.5 74.3 22 0.9 33.7
11:00 1016 30 846 24.98 23.4 74 21 -0.1 31.8
11:05 1016 30 846 24.98 23.6 74.4 22 1 33.8
11:10 1016 30 845 24.95 24.4 76 19 -0.7 30.8
11:15 1016 30 845 24.95 25.1 77.2 19 0.2 32.3
11:20 1016 30 845 24.95 26 78.7 19 0.7 33.3
11:25 1016 30 845 24.95 26.1 79 19 1.3 34.3
11:30 1016 30 845 24.95 25.8 78.4 19 1 33.8
11:35 1016 30 845 24.95 25.1 77.2 21 1.3 34.3
11:40 1016 30 845 24.95 25.7 78.2 18 0 32
11:45 1016 30 845 24.95 26.7 80 17 0.3 32.5
11:50 1016 30 845 24.95 25.9 78.7 19 1.1 34
11:55 1016 30 845 24.95 26.1 78.9 18 0.4 32.7
12:00 1016 30 845 24.95 26 78.8 19 0.9 33.7
12:05 1016 30 845 24.95 26 78.8 15 -2.1 28.3
12:10 1016 30 845 24.95 26.8 80.3 15 -1.7 29
12:15 1016 30 845 24.95 26 78.7 18 -0.2 31.6
12:20 1015 29.97 845 24.95 25.5 77.9 16 -1.6 29.2
12:25 1015 29.97 845 24.95 25.6 78 18 -0.3 31.5
12:30 1015 29.97 844 24.92 26.7 80.1 18 0.8 33.4
12:35 1015 29.97 844 24.92 27.6 81.7 15 -0.7 30.8
12:40 1015 29.97 844 24.92 28.2 82.8 15 -0.2 31.6
12:45 1015 29.97 844 24.92 28.1 82.6 15 -0.3 31.4
12:50 1015 29.97 844 24.92 28.3 82.9 15 -0.2 31.7
12:55 1015 29.97 844 24.92 28.2 82.8 15 -0.5 31.1
13:00 1015 29.97 844 24.92 28.9 84 15 -0.2 31.7
13:05 1015 29.97 844 24.92 28.6 83.6 15 -0.2 31.7
13:10 1015 29.97 844 24.92 29 84.2 14 -0.8 30.6
13:15 1015 29.97 844 24.92 28.8 83.8 14 -1.1 30
13:20 1014 29.94 844 24.92 29 84.2 14 -0.6 30.9
13:25 1014 29.94 844 24.92 29 84.1 13 -1.5 29.4
13:30 1014 29.94 844 24.92 29 84.1 13 -1.5 29.4
13:35 1014 29.94 843 24.89 29.3 84.7 14 -0.4 31.2
13:40 1014 29.94 843 24.89 28.7 83.6 14 -1.6 29.1
13:45 1014 29.94 843 24.89 28.5 83.3 14 -0.9 30.5
13:50 1014 29.94 843 24.89 29 84.3 13 -1.8 28.8
13:55 1014 29.94 843 24.89 29.5 85.1 13 -1.6 29.2
14:00 1014 29.94 843 24.89 29.8 85.6 13 -1.5 29.3
14:05 1014 29.94 843 24.89 29.7 85.5 13 -1.6 29.2
14:10 1014 29.94 843 24.89 29.8 85.6 13 -1 30.2
14:15 1014 29.94 843 24.89 29.8 85.6 13 -1.4 29.6
14:20 1014 29.94 843 24.89 29.3 84.8 13 -1.8 28.8
14:25 1014 29.94 843 24.89 29.3 84.7 12 -2.2 28
14:30 1014 29.94 843 24.89 29.2 84.6 12 -2.5 27.6
14:35 1014 29.94 843 24.89 29.7 85.4 13 -1.7 28.9
14:40 1014 29.94 843 24.89 30 86 12 -2.6 27.3
14:45 1014 29.94 843 24.89 30.2 86.3 12 -2.4 27.6
14:50 1014 29.94 843 24.89 30 86 12 -1.9 28.6
14:55 1014 29.94 843 24.89 30 85.9 12 -2.8 27
15:00 1013 29.91 843 24.89 29.4 84.8 12 -2.4 27.7
15:05 1013 29.91 843 24.89 29.7 85.5 12 -2.4 27.8
15:10 1013 29.91 843 24.89 30 85.9 13 -1.5 29.3
15:15 1013 29.91 843 24.89 29.8 85.7 12 -2.4 27.7
15:20 1013 29.91 842 24.86 29.5 85.2 12 -2.1 28.3
15:25 1013 29.91 842 24.86 29.8 85.7 12 -2.1 28.2
15:30 1013 29.91 842 24.86 30 86 13 -1.3 29.6
15:35 1013 29.91 842 24.86 29.9 85.9 13 -1.4 29.5
15:40 1013 29.91 842 24.86 29.4 85 12 -2.1 28.3
15:45 1013 29.91 842 24.86 30.1 86.2 12 -2.1 28.1
15:50 1013 29.91 842 24.86 30.7 87.3 12 -1.5 29.2
15:55 1013 29.91 842 24.86 30.2 86.3 12 -1.7 28.9
16:00 1013 29.91 842 24.86 30.1 86.1 12 -2.2 28
16:05 1013 29.91 842 24.86 30.1 86.1 12 -1.9 28.6
16:10 1013 29.91 842 24.86 30.3 86.5 12 -2.2 28.1
16:15 1013 29.91 842 24.86 30.7 87.2 12 -1.8 28.7
16:20 1013 29.91 842 24.86 30.8 87.4 12 -2.1 28.2
16:25 1013 29.91 842 24.86 30.7 87.2 11 -2.2 28
16:30 1013 29.91 842 24.86 29.8 85.7 12 -2.3 27.9
16:35 1013 29.91 842 24.86 29.5 85 11 -3.4 25.8
16:40 1013 29.91 842 24.86 29.2 84.6 12 -3.1 26.5
16:45 1012 29.88 842 24.86 30 86.1 12 -2.7 27.2
16:50 1012 29.88 842 24.86 30.9 87.6 11 -2.3 27.9
16:55 1013 29.91 842 24.86 31.2 88.1 12 -1.6 29.1
17:00 1012 29.88 842 24.86 30.8 87.5 12 -1.7 29
17:05 1012 29.88 842 24.86 30.5 87 12 -1.7 28.9
17:10 1012 29.88 842 24.86 30.2 86.4 11 -3.3 26.1
17:15 1012 29.88 842 24.86 30 85.9 11 -3.2 26.2
17:20 1012 29.88 841 24.83 29.7 85.5 13 -1 30.1
17:25 1012 29.88 841 24.83 29.9 85.8 12 -2.2 28
17:30 1012 29.88 841 24.83 30.2 86.3 10 -4 24.9
17:35 1012 29.88 841 24.83 30.3 86.5 12 -2 28.3
17:40 1012 29.88 841 24.83 30.2 86.4 11 -2.9 26.8
17:45 1012 29.88 841 24.83 29.8 85.6 13 -1.8 28.8
17:50 1012 29.88 841 24.83 29.5 85.1 12 -2.7 27.2
17:55 1012 29.88 841 24.83 29.2 84.6 12 -2.9 26.7
18:00 1012 29.88 841 24.83 28.9 84 12 -2.8 27
18:05 1012 29.88 841 24.83 28.8 83.9 12 -3.6 25.5
18:10 1012 29.88 841 24.83 28.8 83.8 14 -1.2 29.8
18:15 1012 29.88 841 24.83 28.7 83.6 13 -1.9 28.6
18:20 1012 29.88 841 24.83 28.5 83.3 18 1.9 35.5
18:25 1012 29.88 841 24.83 28.4 83.1 17 1.1 34
18:30 1012 29.88 841 24.83 28.3 82.9 17 1.2 34.2
18:35 1012 29.88 841 24.83 28.1 82.6 14 -1.3 29.7
18:40 1012 29.88 841 24.83 27.9 82.1 16 -0.1 31.8
18:45 1012 29.88 841 24.83 27.4 81.3 16 -0.5 31.1
18:50 1012 29.88 841 24.83 27.2 81 21 3.2 37.7
18:55 1012 29.88 841 24.83 27.1 80.8 16 -0.4 31.2
19:00 1012 29.88 841 24.83 27 80.7 19 1.4 34.6
19:05 1012 29.88 841 24.83 26.6 79.9 22 3.7 38.7
19:10 1012 29.88 841 24.83 26.2 79.1 25 5.1 41.2
19:15 1012 29.88 841 24.83 25.8 78.4 24 3.8 38.8
19:20 1012 29.88 842 24.86 25.5 78 23 3.1 37.7
19:25 1012 29.88 842 24.86 25 77 20 0.9 33.7
19:30 1012 29.88 842 24.86 25.1 77.2 25 4.1 39.3
19:35 1012 29.88 842 24.86 24.4 75.9 28 4.8 40.7
19:40 1012 29.88 842 24.86 23.7 74.7 32 6.4 43.4
19:45 1012 29.88 842 24.86 23 73.5 30 4.7 40.5
19:50 1012 29.88 842 24.86 22.7 72.8 29 3.8 38.8
19:55 1013 29.91 842 24.86 22.4 72.4 30 4.2 39.5
20:00 1013 29.91 842 24.86 22 71.5 30 3.8 38.9
20:05 1013 29.91 842 24.86 21.8 71.2 29 3 37.4
20:10 1013 29.91 842 24.86 21.6 70.9 33 4.8 40.7
20:15 1013 29.91 842 24.86 20.7 69.2 32 3.5 38.3
20:20 1013 29.91 842 24.86 20.9 69.5 32 3.7 38.7
20:25 1013 29.91 842 24.86 20.8 69.4 31 3.1 37.5
20:30 1013 29.91 842 24.86 20.8 69.4 31 3.4 38.2
20:35 1013 29.91 842 24.86 20.3 68.6 30 2.4 36.3
20:40 1013 29.91 842 24.86 20.1 68.1 32 3 37.4
20:45 1013 29.91 842 24.86 19.6 67.4 33 3.2 37.7
20:50 1013 29.91 842 24.86 19 66.2 34 2.8 37.1
20:55 1013 29.91 842 24.86 19.3 66.8 29 0.9 33.7
21:00 1013 29.91 842 24.86 20.1 68.1 30 2 35.6
21:05 1013 29.91 842 24.86 20.4 68.7 27 1 33.8
21:10 1013 29.91 842 24.86 20.4 68.6 27 1.1 34
21:15 1013 29.91 842 24.86 20.4 68.8 25 0 32.1
21:20 1013 29.91 842 24.86 21 69.7 27 1.4 34.6
21:25 1013 29.91 842 24.86 20.9 69.7 24 -0.1 31.9
21:30 1013 29.91 842 24.86 21.1 69.9 25 0.3 32.6
21:35 1013 29.91 842 24.86 20.9 69.5 26 0.7 33.2
21:40 1013 29.91 842 24.86 20 68 30 1.9 35.5
21:45 1013 29.91 842 24.86 18.7 65.7 32 1.7 35
21:50 1013 29.91 842 24.86 18.2 64.8 31 1.1 34
21:55 1013 29.91 842 24.86 18.5 65.2 29 0.3 32.5
22:00 1013 29.91 842 24.86 18.4 65.2 31 1.2 34.1
22:05 1013 29.91 842 24.86 18.5 65.3 28 -0.1 31.8
22:10 1013 29.91 842 24.86 19 66.2 27 -0.4 31.4
22:15 1013 29.91 842 24.86 19.5 67.2 24 -1.2 29.8
22:20 1013 29.91 842 24.86 20.2 68.3 26 0.2 32.4
22:25 1013 29.91 842 24.86 19.9 67.8 25 -0.5 31.1
22:30 1013 29.91 842 24.86 19.6 67.2 26 -0.3 31.4
22:35 1013 29.91 842 24.86 19.4 66.8 25 -0.8 30.5
22:40 1013 29.91 842 24.86 19.1 66.3 30 1.2 34.1
22:45 1013 29.91 843 24.89 18.3 65 28 -0.3 31.4
22:50 1013 29.91 842 24.86 18.3 64.9 30 0.4 32.8
22:55 1013 29.91 843 24.89 18 64.5 31 1 33.7
23:00 1013 29.91 843 24.89 17.7 63.9 30 -0.2 31.7
23:05 1013 29.91 842 24.86 17.9 64.2 28 -0.5 31
23:10 1013 29.91 842 24.86 18.6 65.5 26 -1.3 29.7
23:15 1013 29.91 842 24.86 19 66.2 26 -0.8 30.6
23:20 1013 29.91 842 24.86 18.3 65 28 -0.2 31.6
23:25 1013 29.91 842 24.86 17.8 64 29 -0.4 31.3
23:30 1013 29.91 842 24.86 17.5 63.5 31 0.4 32.7
23:35 1013 29.91 842 24.86 17.2 63 30 -0.4 31.2
23:40 1013 29.91 842 24.86 17.1 62.8 31 -0.1 31.8
23:45 1013 29.91 842 24.86 17.2 62.9 29 -0.7 30.7
23:50 1013 29.91 843 24.89 17.4 63.4 31 0.3 32.6
23:55 1013 29.91 842 24.86 17.3 63.2 28 -1.1 30.1
24:00 1013 29.91 842 24.86 17.3 63.1 30 -0.5 31.1